Time;durP1;ratioP1;P1;durP2;ratioP2;P2;SDS_P1;SDS_P2;PMS_P1;PMS_P2;Temp;Humidity;BMP_temperature;BMP_pressure;BME280_temperature;BME280_humidity;BME280_pressure;Samples;Min_cycle;Max_cycle;Signal;HPM_P1;HPM_P2
2021/05/23 00:01:30;;;;;;;7.53;1.73;;;9.10;99.90;;;;;;5057140;28;20088;-77
2021/05/23 00:03:56;;;;;;;7.72;1.65;;;9.10;99.90;;;;;;5070854;28;20062;-77
2021/05/23 00:06:21;;;;;;;13.35;0.77;;;9.10;99.90;;;;;;5053468;28;20051;-76
2021/05/23 00:08:47;;;;;;;5.22;0.57;;;9.00;99.90;;;;;;5061680;28;20028;-77
2021/05/23 00:11:13;;;;;;;5.60;0.68;;;9.00;99.90;;;;;;5057534;28;20466;-76
2021/05/23 00:13:47;;;;;;;6.75;0.60;;;9.00;99.90;;;;;;5039289;28;20063;-77
2021/05/23 00:16:16;;;;;;;8.18;1.52;;;9.00;99.90;;;;;;5057504;28;20053;-77
2021/05/23 00:18:45;;;;;;;4.28;0.75;;;9.00;99.90;;;;;;5048677;28;20111;-78
2021/05/23 00:21:13;;;;;;;12.60;1.88;;;9.00;99.90;;;;;;5078909;28;20024;-76
2021/05/23 00:23:38;;;;;;;9.40;0.82;;;8.90;99.90;;;;;;5080030;28;20024;-75
2021/05/23 00:26:05;;;;;;;5.10;0.77;;;8.90;99.90;;;;;;5060032;28;20035;-77
2021/05/23 00:28:31;;;;;;;12.80;1.25;;;8.90;99.90;;;;;;5077825;28;20107;-81
2021/05/23 00:30:57;;;;;;;6.57;0.82;;;8.90;99.90;;;;;;5061881;28;20033;-75
2021/05/23 00:33:23;;;;;;;9.07;1.38;;;8.90;99.90;;;;;;5061526;28;20032;-76
2021/05/23 00:35:49;;;;;;;6.75;0.80;;;8.90;99.90;;;;;;5058101;28;20029;-80
2021/05/23 00:38:15;;;;;;;7.07;1.00;;;8.80;99.90;;;;;;5059412;28;20024;-77
2021/05/23 00:40:41;;;;;;;9.30;1.33;;;8.80;99.90;;;;;;5074518;22;20040;-87
2021/05/23 00:43:09;;;;;;;9.18;0.80;;;8.80;99.90;;;;;;5060700;28;20076;-87
2021/05/23 00:45:35;;;;;;;4.35;1.80;;;9.60;99.90;;;;;;5060463;28;20017;-87
2021/05/23 00:48:01;;;;;;;9.90;1.27;;;8.90;99.90;;;;;;5039519;28;20015;-87
2021/05/23 00:50:26;;;;;;;9.57;0.80;;;8.40;99.90;;;;;;5041896;28;20103;-88
2021/05/23 00:52:53;;;;;;;7.63;0.80;;;8.30;99.90;;;;;;5041386;28;20017;-90
2021/05/23 00:55:20;;;;;;;10.93;0.80;;;8.30;99.90;;;;;;5068922;28;20073;-89
2021/05/23 00:57:46;;;;;;;3.28;1.30;;;8.60;99.90;;;;;;5067380;28;20028;-89
2021/05/23 01:00:33;;;;;;;5.10;1.05;;;8.50;99.90;;;;;;5047071;28;20025;-89
2021/05/23 01:03:03;;;;;;;6.78;1.42;;;8.80;99.90;;;;;;5044772;28;20025;-90
2021/05/23 01:05:31;;;;;;;8.32;1.00;;;8.80;99.90;;;;;;5044821;28;20107;-90
2021/05/23 01:07:57;;;;;;;;;;;8.90;99.90;;;;;;5046622;28;20021;-89
2021/05/23 01:10:26;;;;;;;8.13;1.88;;;12.50;99.90;;;;;;5063359;28;19959;-89
2021/05/23 01:12:56;;;;;;;3.72;1.02;;;8.90;99.90;;;;;;5078744;28;20096;-90
2021/05/23 01:15:29;;;;;;;4.78;1.50;;;8.70;99.90;;;;;;5063698;28;20029;-90
2021/05/23 01:17:57;;;;;;;9.20;1.15;;;11.90;99.90;;;;;;5064090;28;20036;-90
2021/05/23 01:20:41;;;;;;;7.20;1.23;;;8.60;99.90;;;;;;5064671;28;20477;-90
2021/05/23 01:23:19;;;;;;;6.72;1.30;;;8.90;99.90;;;;;;5044153;28;20029;-89
2021/05/23 01:25:47;;;;;;;6.75;2.28;;;6.30;99.90;;;;;;5044891;28;20023;-89
2021/05/23 01:28:17;;;;;;;12.43;2.03;;;8.20;99.90;;;;;;5061123;28;20480;-90
2021/05/23 01:30:48;;;;;;;7.30;1.73;;;8.60;99.90;;;;;;5084257;28;20027;-90
2021/05/23 01:33:17;;;;;;;19.90;2.28;;;7.90;99.90;;;;;;5083664;28;20016;-90
2021/05/23 01:35:50;;;;;;;3.95;1.50;;;10.70;99.90;;;;;;5075792;28;20020;-90
2021/05/23 01:38:18;;;;;;;7.10;2.28;;;8.30;99.90;;;;;;5062474;28;20052;-90
2021/05/23 01:40:45;;;;;;;9.98;2.92;;;8.50;99.90;;;;;;5055080;28;20047;-90
2021/05/23 01:43:11;;;;;;;7.97;2.03;;;8.60;99.90;;;;;;5077050;28;20020;-90
2021/05/23 01:45:37;;;;;;;15.68;3.60;;;8.60;99.90;;;;;;5064502;28;20021;-90
2021/05/23 01:48:05;;;;;;;4.90;1.73;;;12.00;99.90;;;;;;5064450;28;20029;-89
2021/05/23 01:50:32;;;;;;;7.30;2.33;;;8.80;99.90;;;;;;5081072;28;20047;-90
2021/05/23 01:53:01;;;;;;;9.80;3.05;;;8.70;99.90;;;;;;5075340;28;20063;-89
2021/05/23 01:55:27;;;;;;;7.63;1.80;;;8.80;99.90;;;;;;5065507;28;20025;-89
2021/05/23 01:57:53;;;;;;;6.63;1.88;;;9.60;99.90;;;;;;5081289;28;20029;-89
2021/05/23 02:00:29;;;;;;;10.13;2.50;;;8.60;99.90;;;;;;5064070;28;20427;-90
2021/05/23 02:02:55;;;;;;;7.50;1.70;;;8.80;99.90;;;;;;5063460;28;20073;-89
2021/05/23 02:05:21;;;;;;;9.45;2.47;;;8.70;99.90;;;;;;5064707;28;20029;-89
2021/05/23 02:07:47;;;;;;;8.23;2.05;;;7.80;99.90;;;;;;5065139;28;20024;-89
2021/05/23 02:10:16;;;;;;;10.35;2.40;;;8.20;99.90;;;;;;5063580;28;20016;-89
2021/05/23 02:12:42;;;;;;;7.35;1.92;;;8.70;99.90;;;;;;5064270;28;20116;-89
2021/05/23 02:15:09;;;;;;;4.28;2.20;;;8.40;99.90;;;;;;5063748;28;20070;-89
2021/05/23 02:17:39;;;;;;;8.57;2.10;;;8.80;99.90;;;;;;5081823;28;20044;-87
2021/05/23 02:20:06;;;;;;;10.30;2.40;;;8.60;99.90;;;;;;5081812;28;20028;-89
2021/05/23 02:22:38;;;;;;;9.80;2.83;;;8.60;99.90;;;;;;5064540;28;20516;-89
2021/05/23 02:25:05;;;;;;;6.55;1.90;;;8.50;99.90;;;;;;5055510;28;20067;-89
2021/05/23 02:27:44;;;;;;;12.82;3.38;;;8.70;99.90;;;;;;5083392;28;20108;-89
2021/05/23 02:30:18;;;;;;;11.77;3.08;;;8.80;99.90;;;;;;5084666;28;20031;-89
2021/05/23 02:32:44;;;;;;;7.35;2.83;;;8.70;99.90;;;;;;5071200;28;20054;-88
2021/05/23 02:35:12;;;;;;;8.65;3.22;;;8.80;99.90;;;;;;5080780;28;20051;-88
2021/05/23 02:37:38;;;;;;;12.23;3.33;;;8.50;99.90;;;;;;5061001;28;20084;-89
2021/05/23 02:40:07;;;;;;;8.05;3.10;;;12.30;99.90;;;;;;5081151;28;20369;-89
2021/05/23 02:42:34;;;;;;;6.63;2.63;;;8.80;99.90;;;;;;5073930;28;20032;-89
2021/05/23 02:45:00;;;;;;;6.90;2.85;;;10.00;99.90;;;;;;5100955;28;20024;-89
2021/05/23 02:47:25;;;;;;;10.00;3.00;;;8.50;99.90;;;;;;5082489;28;20162;-89
2021/05/23 02:49:51;;;;;;;12.07;3.42;;;8.50;99.90;;;;;;5081958;28;20016;-89
2021/05/23 02:52:17;;;;;;;11.43;3.65;;;8.60;99.90;;;;;;5084184;28;20037;-88
2021/05/23 02:54:43;;;;;;;9.18;3.78;;;8.10;99.90;;;;;;5062666;28;20047;-89
2021/05/23 02:57:08;;;;;;;9.35;3.20;;;8.50;99.90;;;;;;5062845;28;20017;-89
2021/05/23 02:59:34;;;;;;;8.25;3.55;;;8.20;99.90;;;;;;5062040;28;20075;-88
2021/05/23 03:02:00;;;;;;;11.65;3.90;;;8.40;99.90;;;;;;5079411;28;20028;-89
2021/05/23 03:04:25;;;;;;;12.25;3.67;;;8.50;99.90;;;;;;5059972;28;20094;-89
2021/05/23 03:06:52;;;;;;;12.20;4.68;;;12.00;99.90;;;;;;5060615;28;20089;-89
2021/05/23 03:09:18;;;;;;;11.43;3.80;;;8.60;99.90;;;;;;5078085;28;20115;-89
2021/05/23 03:11:44;;;;;;;10.05;3.92;;;8.50;99.90;;;;;;5060431;28;20067;-89
2021/05/23 03:14:13;;;;;;;8.93;3.58;;;8.70;99.90;;;;;;5079695;28;20021;-89
2021/05/23 03:16:39;;;;;;;12.50;4.03;;;8.60;99.90;;;;;;5061537;28;20016;-90
2021/05/23 03:19:05;;;;;;;11.25;4.85;;;11.90;99.90;;;;;;5061259;28;20028;-89
2021/05/23 03:21:30;;;;;;;18.10;4.82;;;11.60;99.90;;;;;;5078726;28;20428;-88
2021/05/23 03:23:56;;;;;;;14.13;5.10;;;11.90;99.90;;;;;;5060322;28;20074;-89
2021/05/23 03:26:22;;;;;;;13.77;5.13;;;8.70;99.90;;;;;;5078594;28;20544;-89
2021/05/23 03:28:48;;;;;;;10.65;5.10;;;8.50;99.90;;;;;;5041617;28;20029;-89
2021/05/23 03:31:13;;;;;;;11.93;5.00;;;8.30;99.90;;;;;;5053775;28;20038;-90
2021/05/23 03:33:39;;;;;;;13.20;6.00;;;11.30;99.90;;;;;;5043614;28;20029;-89
2021/05/23 03:36:05;;;;;;;15.00;5.75;;;12.40;99.90;;;;;;5042916;28;20394;-89
2021/05/23 03:38:30;;;;;;;12.88;5.40;;;9.00;99.90;;;;;;5039367;28;20032;-90
2021/05/23 03:40:56;;;;;;;18.23;6.32;;;8.80;99.90;;;;;;5055876;28;20025;-90
2021/05/23 03:43:22;;;;;;;12.65;5.53;;;8.80;99.90;;;;;;5038224;28;20021;-90
2021/05/23 03:45:47;;;;;;;12.77;6.07;;;8.60;99.90;;;;;;5038251;28;20025;-90
2021/05/23 03:48:13;;;;;;;14.90;5.93;;;9.00;99.90;;;;;;5038424;28;20060;-88
2021/05/23 03:50:38;;;;;;;19.80;6.43;;;11.70;99.90;;;;;;5057641;28;20104;-88
2021/05/23 03:53:04;;;;;;;12.00;5.75;;;9.20;99.90;;;;;;5075319;28;20039;-90
2021/05/23 03:55:36;;;;;;;14.68;6.30;;;9.00;99.90;;;;;;5037941;28;20025;-90
2021/05/23 03:58:03;;;;;;;13.80;5.72;;;9.10;99.90;;;;;;5038488;28;20021;-90
2021/05/23 04:00:29;;;;;;;14.70;7.35;;;9.10;99.90;;;;;;5037358;28;20075;-90
2021/05/23 04:02:56;;;;;;;19.00;7.78;;;9.20;99.90;;;;;;5044491;28;20025;-89
2021/05/23 04:05:23;;;;;;;15.60;7.88;;;10.80;99.90;;;;;;5076478;28;20036;-90
2021/05/23 04:07:50;;;;;;;18.05;8.63;;;9.10;99.90;;;;;;5044670;28;20040;-89
2021/05/23 04:10:19;;;;;;;22.00;10.13;;;9.30;99.90;;;;;;5055548;28;20166;-90
2021/05/23 04:12:47;;;;;;;23.73;9.70;;;9.30;99.90;;;;;;5058073;28;20020;-91
2021/05/23 04:15:14;;;;;;;22.90;9.80;;;9.30;99.90;;;;;;5055511;28;20397;-90
2021/05/23 04:17:40;;;;;;;22.42;10.18;;;9.50;99.90;;;;;;5042662;28;20028;-90
2021/05/23 04:20:09;;;;;;;25.98;9.43;;;9.50;99.90;;;;;;5052464;28;20119;-90
2021/05/23 04:22:36;;;;;;;18.48;8.70;;;9.60;99.90;;;;;;5056954;28;20052;-90
2021/05/23 04:25:05;;;;;;;23.10;9.30;;;9.60;99.90;;;;;;5056145;28;20028;-89
2021/05/23 04:27:31;;;;;;;19.10;8.65;;;9.60;99.90;;;;;;5057034;28;20519;-90
2021/05/23 04:29:57;;;;;;;18.08;8.20;;;9.70;99.90;;;;;;5057328;28;20115;-89
2021/05/23 04:32:22;;;;;;;16.10;8.00;;;9.70;99.90;;;;;;5055381;28;20055;-89
2021/05/23 04:34:49;;;;;;;16.70;7.97;;;9.70;99.90;;;;;;5055432;28;20017;-89
2021/05/23 04:37:16;;;;;;;16.98;7.80;;;9.70;99.90;;;;;;5037650;28;20033;-90
2021/05/23 04:39:42;;;;;;;15.00;7.80;;;9.70;99.90;;;;;;5069117;28;20024;-89
2021/05/23 04:42:08;;;;;;;14.57;7.05;;;9.80;99.90;;;;;;5056796;28;20033;-91
2021/05/23 04:44:34;;;;;;;14.13;6.72;;;9.70;99.90;;;;;;5046719;28;20025;-90
2021/05/23 04:46:59;;;;;;;15.20;6.97;;;9.50;99.90;;;;;;5038836;28;20473;-89
2021/05/23 04:49:25;;;;;;;11.80;5.85;;;9.70;99.90;;;;;;5037924;28;20033;-89
2021/05/23 04:51:50;;;;;;;13.38;6.35;;;9.80;99.90;;;;;;5037168;28;20052;-90
2021/05/23 04:54:16;;;;;;;12.07;6.10;;;9.80;99.90;;;;;;5037599;28;20013;-89
2021/05/23 04:56:42;;;;;;;12.30;6.28;;;9.80;99.90;;;;;;5077730;28;20465;-89
2021/05/23 04:59:08;;;;;;;11.63;6.03;;;9.70;99.90;;;;;;5064691;28;20106;-89
2021/05/23 05:01:34;;;;;;;11.43;5.22;;;9.70;99.90;;;;;;5061387;28;20032;-89
2021/05/23 05:03:59;;;;;;;9.75;4.75;;;9.70;99.90;;;;;;5079366;28;20070;-90
2021/05/23 05:06:25;;;;;;;9.50;4.97;;;9.70;99.90;;;;;;5061518;28;20451;-90
2021/05/23 05:08:51;;;;;;;9.75;5.00;;;9.70;99.90;;;;;;5079583;28;20031;-90
2021/05/23 05:11:16;;;;;;;7.60;3.20;;;9.40;99.90;;;;;;5078215;28;20104;-91
2021/05/23 05:13:42;;;;;;;7.35;2.58;;;9.80;99.90;;;;;;5062094;28;20385;-90
2021/05/23 05:16:08;;;;;;;6.40;2.15;;;9.90;99.90;;;;;;5060775;28;20426;-91
2021/05/23 05:18:35;;;;;;;5.93;1.70;;;9.80;99.90;;;;;;5061037;28;20032;-90
2021/05/23 05:21:01;;;;;;;5.05;2.00;;;9.70;99.90;;;;;;5061723;28;20115;-90
2021/05/23 05:23:27;;;;;;;5.47;1.30;;;10.20;99.90;;;;;;5061710;28;20017;-90
2021/05/23 05:25:52;;;;;;;3.10;1.70;;;12.70;99.90;;;;;;5057879;28;20021;-90
2021/05/23 05:28:18;;;;;;;4.18;2.20;;;10.20;99.90;;;;;;5053377;28;20036;-88
2021/05/23 05:30:44;;;;;;;5.82;2.20;;;10.20;99.90;;;;;;5060455;28;20017;-89
2021/05/23 05:33:09;;;;;;;6.88;3.47;;;10.10;99.90;;;;;;5060290;28;20020;-88
2021/05/23 05:35:35;;;;;;;8.98;4.25;;;10.00;99.90;;;;;;5042323;28;20143;-88
2021/05/23 05:38:00;;;;;;;4.90;2.92;;;9.90;99.90;;;;;;5041139;28;20104;-89
2021/05/23 05:40:26;;;;;;;7.93;3.35;;;9.90;99.90;;;;;;5056421;28;20032;-89
2021/05/23 05:42:52;;;;;;;7.15;3.25;;;9.90;99.90;;;;;;5061005;28;20016;-89
2021/05/23 05:45:17;;;;;;;5.47;3.38;;;9.90;99.90;;;;;;5062659;28;20028;-89
2021/05/23 05:47:43;;;;;;;8.48;4.40;;;9.90;99.90;;;;;;5062205;28;20497;-89
2021/05/23 05:50:09;;;;;;;7.38;3.83;;;12.50;99.90;;;;;;5061950;28;20028;-89
2021/05/23 05:52:35;;;;;;;11.60;5.00;;;10.00;99.90;;;;;;5054920;28;20024;-89
2021/05/23 05:55:01;;;;;;;12.73;4.78;;;10.10;99.90;;;;;;5041758;28;20394;-88
2021/05/23 05:57:26;;;;;;;16.13;6.85;;;10.20;99.90;;;;;;5043602;28;20017;-89
2021/05/23 05:59:52;;;;;;;12.07;6.10;;;10.50;99.90;;;;;;5044329;28;20122;-90
2021/05/23 06:02:17;;;;;;;17.80;7.15;;;9.90;99.90;;;;;;5081196;28;20074;-89
2021/05/23 06:04:44;;;;;;;20.05;7.57;;;11.10;99.90;;;;;;5063046;28;20119;-89
2021/05/23 06:07:09;;;;;;;16.65;7.30;;;10.60;99.90;;;;;;5051657;28;20061;-89
2021/05/23 06:09:35;;;;;;;20.75;7.82;;;10.00;99.90;;;;;;5043744;28;20025;-88
2021/05/23 06:12:01;;;;;;;14.27;7.00;;;13.00;99.90;;;;;;5044045;28;20067;-88
2021/05/23 06:14:27;;;;;;;14.65;5.05;;;10.30;99.90;;;;;;5061319;28;20078;-88
2021/05/23 06:16:53;;;;;;;9.82;3.60;;;10.20;99.90;;;;;;5069460;28;20025;-89
2021/05/23 06:19:21;;;;;;;5.15;2.20;;;14.00;99.90;;;;;;5062658;28;20028;-89
2021/05/23 06:21:47;;;;;;;7.47;2.30;;;9.90;99.90;;;;;;5064258;28;20078;-89
2021/05/23 06:24:12;;;;;;;4.85;2.47;;;10.00;99.90;;;;;;5068657;28;20472;-89
2021/05/23 06:26:38;;;;;;;5.80;2.00;;;9.90;99.90;;;;;;5082844;28;20025;-90
2021/05/23 06:29:04;;;;;;;6.78;1.75;;;9.80;99.90;;;;;;5083498;28;20046;-89
2021/05/23 06:31:29;;;;;;;4.53;1.95;;;9.80;99.90;;;;;;5083350;28;20504;-90
2021/05/23 06:33:56;;;;;;;3.47;1.73;;;9.70;99.90;;;;;;5079450;28;20443;-89
2021/05/23 06:36:23;;;;;;;2.33;1.20;;;9.70;99.90;;;;;;5063101;28;20021;-89
2021/05/23 06:38:49;;;;;;;2.00;1.30;;;9.70;99.90;;;;;;5066289;28;20025;-89
2021/05/23 06:41:15;;;;;;;1.95;0.70;;;9.60;99.90;;;;;;5058749;28;20127;-90
2021/05/23 06:43:41;;;;;;;1.58;0.68;;;10.70;99.90;;;;;;5042297;28;20049;-89
2021/05/23 06:46:06;;;;;;;4.03;1.10;;;9.50;99.90;;;;;;5061530;28;20033;-89
2021/05/23 06:48:32;;;;;;;1.83;0.80;;;9.30;99.90;;;;;;5045009;28;20090;-87
2021/05/23 06:50:57;;;;;;;4.25;1.60;;;9.80;99.90;;;;;;5043970;28;20017;-87
2021/05/23 06:53:23;;;;;;;8.80;2.88;;;9.70;99.90;;;;;;5054452;28;20085;-88
2021/05/23 06:55:49;;;;;;;10.65;2.40;;;10.00;99.90;;;;;;5083616;28;20020;-89
2021/05/23 06:58:14;;;;;;;17.70;3.40;;;10.00;99.90;;;;;;5103084;28;20059;-88
2021/05/23 07:00:40;;;;;;;7.70;1.67;;;8.50;99.90;;;;;;5086969;28;20023;-88
2021/05/23 07:03:06;;;;;;;9.35;2.47;;;12.40;99.90;;;;;;5058024;28;20048;-89
2021/05/23 07:05:31;;;;;;;6.90;1.90;;;9.90;99.90;;;;;;5044722;28;20024;-89
2021/05/23 07:07:57;;;;;;;13.10;2.05;;;9.30;99.90;;;;;;5044485;28;20091;-88
2021/05/23 07:10:23;;;;;;;13.40;2.88;;;11.80;99.90;;;;;;5066270;28;20036;-88
2021/05/23 07:12:48;;;;;;;10.32;2.92;;;10.60;99.90;;;;;;5053091;28;20029;-88
2021/05/23 07:15:14;;;;;;;10.68;2.38;;;10.60;99.90;;;;;;5042549;28;20040;-88
2021/05/23 07:17:40;;;;;;;14.82;3.42;;;10.90;99.90;;;;;;5043599;28;20062;-88
2021/05/23 07:20:06;;;;;;;10.15;2.60;;;10.20;99.90;;;;;;5041833;28;20163;-89
2021/05/23 07:22:32;;;;;;;9.90;2.78;;;11.10;99.90;;;;;;5059697;28;20079;-88
2021/05/23 07:24:58;;;;;;;11.43;2.58;;;11.20;99.90;;;;;;5040830;28;20017;-88
2021/05/23 07:27:24;;;;;;;13.45;3.15;;;12.40;99.90;;;;;;5055481;28;20032;-86
2021/05/23 07:29:49;;;;;;;10.88;2.20;;;11.40;99.90;;;;;;5055123;28;20047;-87
2021/05/23 07:32:15;;;;;;;7.10;1.80;;;11.60;99.90;;;;;;5075264;28;20012;-87
2021/05/23 07:34:40;;;;;;;9.57;1.38;;;11.60;99.90;;;;;;5057367;28;20564;-87
2021/05/23 07:37:12;;;;;;;9.38;1.20;;;11.70;99.90;;;;;;5058053;28;20052;-87
2021/05/23 07:39:38;;;;;;;10.23;2.38;;;11.60;99.90;;;;;;5057390;28;20028;-88
2021/05/23 07:42:04;;;;;;;6.22;1.60;;;11.60;99.90;;;;;;5060307;28;20031;-86
2021/05/23 07:44:29;;;;;;;5.47;0.82;;;11.60;99.90;;;;;;5060893;28;20033;-89
2021/05/23 07:47:04;;;;;;;9.20;1.85;;;11.60;99.90;;;;;;5077782;28;20024;-87
2021/05/23 07:49:31;;;;;;;6.55;1.20;;;11.60;99.90;;;;;;5059996;28;20075;-87
2021/05/23 07:51:56;;;;;;;8.38;1.45;;;13.00;99.90;;;;;;5065471;22;20024;-81
2021/05/23 07:54:22;;;;;;;7.30;1.90;;;14.00;99.90;;;;;;5074242;28;20478;-75
2021/05/23 07:56:48;;;;;;;8.10;2.03;;;12.00;99.90;;;;;;5055884;28;20385;-75
2021/05/23 07:59:13;;;;;;;5.80;2.47;;;12.80;99.90;;;;;;5074335;28;20166;-75
2021/05/23 08:01:39;;;;;;;9.32;2.35;;;12.90;99.90;;;;;;5054910;28;20405;-75
2021/05/23 08:04:05;;;;;;;8.73;1.08;;;12.10;99.90;;;;;;5053298;28;20029;-78
2021/05/23 08:06:31;;;;;;;5.07;1.73;;;12.10;99.90;;;;;;5057837;28;20059;-81
2021/05/23 08:08:57;;;;;;;13.38;2.22;;;12.00;99.90;;;;;;5058113;28;20021;-77
2021/05/23 08:11:23;;;;;;;7.03;2.03;;;12.10;99.90;;;;;;5063946;28;20047;-76
2021/05/23 08:13:48;;;;;;;10.00;2.25;;;12.10;99.90;;;;;;5058417;28;20544;-76
2021/05/23 08:16:14;;;;;;;10.32;2.38;;;12.20;99.90;;;;;;5078021;28;20402;-76
2021/05/23 08:18:42;;;;;;;6.78;1.17;;;12.40;99.90;;;;;;5077473;28;20465;-78
2021/05/23 08:21:07;;;;;;;3.83;1.63;;;12.50;99.90;;;;;;5093976;22;20107;-76
2021/05/23 08:23:36;;;;;;;7.50;1.02;;;11.50;99.90;;;;;;5086368;28;20044;-76
2021/05/23 08:26:02;;;;;;;;;;;12.20;99.90;;;;;;5060090;28;20034;-78
2021/05/23 08:28:31;;;;;;;4.65;1.10;;;12.20;99.90;;;;;;5066411;28;20343;-76
2021/05/23 08:30:57;;;;;;;3.35;0.38;;;12.40;99.90;;;;;;5056589;28;20475;-77
2021/05/23 08:33:23;;;;;;;8.93;1.33;;;12.40;99.90;;;;;;5098331;28;20099;-79
2021/05/23 08:35:48;;;;;;;4.25;0.40;;;12.20;99.90;;;;;;5068734;28;20554;-78
2021/05/23 08:38:14;;;;;;;2.83;0.30;;;12.20;99.90;;;;;;5094218;28;20389;-79
2021/05/23 08:40:40;;;;;;;3.60;0.32;;;12.20;99.90;;;;;;5061689;28;20481;-77
2021/05/23 08:43:09;;;;;;;1.85;0.22;;;12.30;99.90;;;;;;5063418;28;20077;-78
2021/05/23 08:45:36;;;;;;;4.18;0.00;;;12.50;99.90;;;;;;5067304;28;20025;-77
2021/05/23 08:48:01;;;;;;;4.15;0.00;;;12.80;99.90;;;;;;5065983;22;20117;-79
2021/05/23 08:50:27;;;;;;;2.38;0.10;;;15.20;99.90;;;;;;5024206;28;20183;-79
2021/05/23 08:52:54;;;;;;;1.30;0.05;;;13.10;99.90;;;;;;5040547;28;20014;-78
2021/05/23 08:55:21;;;;;;;2.65;0.15;;;13.30;99.90;;;;;;5057127;28;20108;-79
2021/05/23 08:57:50;;;;;;;1.08;0.00;;;13.50;99.90;;;;;;5074556;22;20053;-79
2021/05/23 09:00:15;;;;;;;3.08;0.22;;;13.50;99.90;;;;;;5063483;28;20020;-77
2021/05/23 09:02:52;;;;;;;2.55;0.50;;;13.50;99.90;;;;;;5079366;28;20024;-73
2021/05/23 09:05:48;;;;;;;1.77;0.00;;;13.50;99.90;;;;;;5043611;28;20463;-75
2021/05/23 09:08:14;;;;;;;4.78;0.30;;;13.60;99.90;;;;;;5051105;28;20029;-77
2021/05/23 09:10:41;;;;;;;4.25;0.65;;;13.50;99.90;;;;;;5041857;28;20025;-77
2021/05/23 09:13:07;;;;;;;5.32;0.28;;;13.20;99.90;;;;;;5057213;28;20397;-77
2021/05/23 09:15:33;;;;;;;3.28;0.00;;;13.10;99.90;;;;;;5038885;28;20116;-78
2021/05/23 09:18:01;;;;;;;4.13;0.38;;;12.90;99.90;;;;;;5056282;28;20028;-77
2021/05/23 09:20:26;;;;;;;6.30;0.10;;;12.70;99.90;;;;;;5038547;28;20032;-78
2021/05/23 09:22:53;;;;;;;4.13;0.52;;;12.40;99.90;;;;;;5038429;28;20602;-77
2021/05/23 09:25:35;;;;;;;3.10;0.30;;;12.30;99.90;;;;;;5057498;28;20021;-77
2021/05/23 09:28:02;;;;;;;4.78;0.52;;;12.30;99.90;;;;;;5078243;28;20458;-77
2021/05/23 09:30:31;;;;;;;5.68;0.38;;;12.40;99.90;;;;;;5076811;28;20354;-77
2021/05/23 09:32:58;;;;;;;3.22;0.03;;;12.40;99.90;;;;;;5058564;28;20019;-78
2021/05/23 09:35:29;;;;;;;10.30;0.85;;;12.40;99.90;;;;;;5043022;28;20024;-75
2021/05/23 09:38:04;;;;;;;1.17;0.13;;;12.60;99.90;;;;;;5038420;28;20031;-75
2021/05/23 09:40:33;;;;;;;7.18;0.30;;;12.90;99.90;;;;;;5038487;28;20110;-75
2021/05/23 09:43:00;;;;;;;4.57;0.40;;;13.30;99.90;;;;;;5037044;28;20051;-75
2021/05/23 09:45:38;;;;;;;4.32;0.50;;;13.20;99.90;;;;;;5055388;28;20432;-75
2021/05/23 09:48:05;;;;;;;5.75;0.68;;;13.30;99.90;;;;;;5038820;28;20044;-75
2021/05/23 09:50:39;;;;;;;3.53;0.28;;;13.50;99.90;;;;;;5037677;28;20029;-76
2021/05/23 09:53:27;;;;;;;1.52;0.20;;;13.40;99.90;;;;;;5048423;28;20016;-76
2021/05/23 09:56:04;;;;;;;3.70;0.30;;;13.40;99.90;;;;;;5075454;28;20020;-77
2021/05/23 09:58:31;;;;;;;5.38;0.45;;;13.50;99.80;;;;;;5040400;28;20496;-76
2021/05/23 10:00:57;;;;;;;4.18;1.10;;;13.60;99.90;;;;;;5072142;28;20396;-78
2021/05/23 10:03:25;;;;;;;2.15;0.03;;;13.60;99.90;;;;;;5063364;28;20074;-80
2021/05/23 10:05:51;;;;;;;1.67;0.13;;;13.40;97.90;;;;;;5039562;28;20366;-78
2021/05/23 10:08:17;;;;;;;4.28;0.30;;;13.30;95.70;;;;;;5057371;28;20104;-76
2021/05/23 10:10:44;;;;;;;3.40;0.17;;;13.00;99.00;;;;;;5038858;28;20021;-79
2021/05/23 10:13:10;;;;;;;3.70;0.10;;;12.80;98.90;;;;;;5042576;28;20074;-79
2021/05/23 10:15:38;;;;;;;4.28;0.60;;;12.70;99.90;;;;;;5058552;28;20071;-77
2021/05/23 10:18:04;;;;;;;5.68;0.08;;;12.70;99.90;;;;;;5057182;28;20530;-83
2021/05/23 10:20:30;;;;;;;3.70;0.60;;;12.70;99.50;;;;;;5053479;22;20116;-77
2021/05/23 10:23:05;;;;;;;4.32;0.00;;;12.70;98.10;;;;;;5074458;28;20020;-79
2021/05/23 10:25:31;;;;;;;2.03;0.22;;;12.70;97.80;;;;;;5075367;28;20032;-78
2021/05/23 10:28:03;;;;;;;4.28;0.38;;;12.80;99.30;;;;;;5060897;28;20056;-77
2021/05/23 10:30:29;;;;;;;2.97;0.20;;;12.70;97.90;;;;;;5076053;28;20033;-77
2021/05/23 10:32:54;;;;;;;1.63;0.08;;;12.70;97.50;;;;;;5076267;28;20059;-77
2021/05/23 10:35:22;;;;;;;1.20;0.32;;;12.60;97.40;;;;;;5090493;22;20033;-80
2021/05/23 10:37:50;;;;;;;3.08;0.08;;;12.60;97.80;;;;;;5058114;28;20031;-79
2021/05/23 10:40:18;;;;;;;1.00;0.00;;;12.60;95.10;;;;;;5058680;28;20519;-76
2021/05/23 10:42:52;;;;;;;5.70;0.10;;;12.60;91.10;;;;;;5081723;28;20447;-76
2021/05/23 10:45:32;;;;;;;0.88;0.00;;;12.80;88.80;;;;;;5041119;28;20045;-77
2021/05/23 10:48:10;;;;;;;3.03;0.00;;;13.40;85.20;;;;;;5035267;28;20501;-74
2021/05/23 10:50:37;;;;;;;3.60;0.00;;;13.60;81.80;;;;;;5022278;28;20561;-77
2021/05/23 10:53:04;;;;;;;2.15;0.10;;;14.20;85.60;;;;;;5054481;28;20028;-76
2021/05/23 10:55:30;;;;;;;3.38;0.30;;;14.50;72.60;;;;;;5054219;28;20103;-75
2021/05/23 10:57:57;;;;;;;5.28;0.00;;;14.40;72.70;;;;;;5036556;28;20087;-75
2021/05/23 11:00:40;;;;;;;2.45;0.25;;;14.30;73.10;;;;;;5067895;28;20535;-77
2021/05/23 11:03:14;;;;;;;3.13;0.00;;;14.30;77.40;;;;;;5074600;28;20024;-76
2021/05/23 11:05:39;;;;;;;0.68;0.00;;;14.30;75.10;;;;;;5057968;28;20028;-75
2021/05/23 11:08:07;;;;;;;4.85;0.38;;;14.20;72.80;;;;;;5054477;28;20099;-76
2021/05/23 11:10:47;;;;;;;0.68;0.10;;;14.20;75.80;;;;;;5053820;28;20036;-74
2021/05/23 11:13:15;;;;;;;2.90;0.00;;;14.10;70.00;;;;;;5054195;28;20099;-77
2021/05/23 11:15:46;;;;;;;2.35;0.05;;;14.30;73.60;;;;;;5036390;28;20048;-76
2021/05/23 11:18:23;;;;;;;3.22;0.00;;;14.40;71.00;;;;;;5078622;22;20027;-76
2021/05/23 11:21:30;;;;;;;0.95;0.10;;;14.50;67.20;;;;;;5053770;28;20017;-75
2021/05/23 11:23:58;;;;;;;1.23;0.00;;;14.60;64.60;;;;;;5057314;28;20040;-74
2021/05/23 11:26:25;;;;;;;0.90;0.00;;;15.10;72.40;;;;;;5073970;28;20022;-76
2021/05/23 11:28:58;;;;;;;2.38;0.20;;;15.60;61.90;;;;;;5087031;22;20040;-76
2021/05/23 11:31:48;;;;;;;0.82;0.10;;;15.50;61.10;;;;;;5056519;28;20094;-76
2021/05/23 11:34:20;;;;;;;2.53;0.00;;;15.60;61.80;;;;;;5068658;28;20477;-77
2021/05/23 11:36:51;;;;;;;3.35;0.00;;;15.20;62.40;;;;;;5140401;22;20482;-80
2021/05/23 11:39:17;;;;;;;0.88;0.00;;;15.30;64.20;;;;;;5056900;28;20104;-78
2021/05/23 11:41:48;;;;;;;2.03;0.00;;;17.40;63.30;;;;;;5067839;28;20031;-78
2021/05/23 11:44:15;;;;;;;0.80;0.00;;;15.70;59.90;;;;;;5080289;28;20076;-79
2021/05/23 11:46:43;;;;;;;0.40;0.00;;;15.80;60.40;;;;;;5132788;22;20043;-78
2021/05/23 11:49:22;;;;;;;1.95;0.25;;;18.70;65.40;;;;;;5037150;28;20475;-78
2021/05/23 11:51:48;;;;;;;0.10;0.10;;;16.30;62.90;;;;;;5056251;28;20036;-77
2021/05/23 11:54:17;;;;;;;1.00;0.20;;;15.90;58.60;;;;;;5076118;22;20021;-86
2021/05/23 11:56:44;;;;;;;5.70;0.00;;;15.80;64.20;;;;;;5077190;28;20023;-86
2021/05/23 11:59:13;;;;;;;1.48;0.10;;;16.10;60.70;;;;;;5076768;28;20020;-86
2021/05/23 12:01:46;;;;;;;;;;;16.10;59.00;;;;;;5074666;28;20035;-86
2021/05/23 12:04:14;;;;;;;4.15;0.10;;;19.40;62.00;;;;;;5069752;28;19905;-87
2021/05/23 12:07:07;;;;;;;1.85;0.10;;;15.70;59.90;;;;;;5047498;28;20048;-87
2021/05/23 12:09:32;;;;;;;2.00;0.32;;;15.70;61.50;;;;;;5028006;28;20057;-88
2021/05/23 12:12:23;;;;;;;1.25;0.10;;;17.70;62.90;;;;;;5068984;28;20033;-87
2021/05/23 12:14:49;;;;;;;1.65;0.00;;;14.40;63.80;;;;;;5049397;28;20432;-87
2021/05/23 12:17:24;;;;;;;0.30;0.00;;;16.30;61.70;;;;;;5068187;28;20032;-88
2021/05/23 12:20:16;;;;;;;2.83;0.17;;;15.10;63.30;;;;;;5066803;28;20386;-88
2021/05/23 12:22:42;;;;;;;3.45;0.57;;;15.60;64.70;;;;;;5074277;28;20033;-87
2021/05/23 12:25:20;;;;;;;3.45;0.30;;;17.90;65.30;;;;;;5068253;28;20051;-88
2021/05/23 12:27:53;;;;;;;1.93;0.00;;;16.30;62.60;;;;;;5070790;28;20029;-87
2021/05/23 12:30:18;;;;;;;2.97;0.00;;;15.90;61.80;;;;;;5054817;28;20056;-87
2021/05/23 12:33:00;;;;;;;2.42;0.57;;;16.00;62.00;;;;;;5064310;23;20486;-79
2021/05/23 12:35:38;;;;;;;3.83;0.20;;;15.90;59.70;;;;;;5062248;28;20111;-79
2021/05/23 12:38:09;;;;;;;1.23;0.10;;;15.80;61.00;;;;;;5075640;28;20378;-79
2021/05/23 12:43:09;;;;;;;1.55;0.00;;;16.30;62.80;;;;;;5033443;28;20057;-85
2021/05/23 12:45:34;;;;;;;3.63;0.00;;;18.10;60.10;;;;;;5022318;28;20092;-84
2021/05/23 12:48:06;;;;;;;2.55;0.45;;;16.70;59.80;;;;;;5027424;28;20022;-88
2021/05/23 12:50:51;;;;;;;3.13;0.00;;;16.80;58.70;;;;;;5005447;28;20386;-87
2021/05/23 12:53:26;;;;;;;0.57;0.00;;;16.90;57.70;;;;;;5025733;28;20108;-86
2021/05/23 12:55:54;;;;;;;1.75;0.00;;;16.90;60.00;;;;;;5036102;28;20029;-87